Time;durP1;ratioP1;P1;durP2;ratioP2;P2;SDS_P1;SDS_P2;PMS_P1;PMS_P2;Temp;Humidity;BMP_temperature;BMP_pressure;BME280_temperature;BME280_humidity;BME280_pressure;Samples;Min_cycle;Max_cycle;Signal;HPM_P1;HPM_P2
2023/05/10 00:01:46;;;;;;;88.10;53.33;;;18.00;79.70;;;;;;4974764;28;94246;-75
2023/05/10 00:04:12;;;;;;;90.82;53.90;;;18.00;79.80;;;;;;4975675;28;95348;-76
2023/05/10 00:06:37;;;;;;;91.50;54.10;;;18.00;79.60;;;;;;4972502;28;94297;-77
2023/05/10 00:09:03;;;;;;;89.07;53.88;;;18.00;79.70;;;;;;4981604;28;95442;-76
2023/05/10 00:11:29;;;;;;;89.90;53.28;;;18.00;79.70;;;;;;4975250;28;94518;-79
2023/05/10 00:13:54;;;;;;;89.15;53.60;;;17.90;79.50;;;;;;4982999;28;94460;-77
2023/05/10 00:16:20;;;;;;;88.97;53.58;;;18.00;79.80;;;;;;4983001;28;93988;-77
2023/05/10 00:18:46;;;;;;;89.45;53.75;;;18.00;79.70;;;;;;4978303;28;94355;-76
2023/05/10 00:21:11;;;;;;;88.68;53.35;;;18.00;79.60;;;;;;4979948;28;94606;-76
2023/05/10 00:23:37;;;;;;;88.68;53.88;;;17.90;79.60;;;;;;4976816;28;96128;-76
2023/05/10 00:26:03;;;;;;;88.93;53.80;;;18.00;79.70;;;;;;4975331;28;94354;-78
2023/05/10 00:28:29;;;;;;;88.82;53.22;;;17.90;79.60;;;;;;4983571;28;94515;-78
2023/05/10 00:30:55;;;;;;;89.93;53.85;;;17.90;79.50;;;;;;4970807;28;95899;-75
2023/05/10 00:33:21;;;;;;;89.03;53.60;;;17.90;79.40;;;;;;4978056;28;97998;-77
2023/05/10 00:35:46;;;;;;;88.68;53.75;;;17.90;79.40;;;;;;4979900;28;94975;-77
2023/05/10 00:38:12;;;;;;;88.60;53.67;;;17.90;79.30;;;;;;4981328;28;94937;-79
2023/05/10 00:40:38;;;;;;;89.07;53.72;;;17.90;79.50;;;;;;4978978;28;94515;-73
2023/05/10 00:43:04;;;;;;;88.95;53.60;;;17.90;79.40;;;;;;4977574;28;96700;-79
2023/05/10 00:45:32;;;;;;;88.97;53.72;;;17.90;79.40;;;;;;4995807;28;95524;-77
2023/05/10 00:47:59;;;;;;;88.22;53.20;;;17.90;79.40;;;;;;4978254;28;94392;-79
2023/05/10 00:50:25;;;;;;;92.20;53.83;;;17.90;79.50;;;;;;4978292;28;94093;-78
2023/05/10 00:52:52;;;;;;;88.05;53.45;;;17.90;79.40;;;;;;4983210;28;94739;-77
2023/05/10 00:55:18;;;;;;;88.40;53.42;;;17.90;79.40;;;;;;4979135;28;95943;-76
2023/05/10 00:57:44;;;;;;;89.28;53.25;;;17.90;79.40;;;;;;4975055;28;95921;-79
2023/05/10 01:00:12;;;;;;;88.43;53.38;;;17.90;79.40;;;;;;4971111;28;94927;-76
2023/05/10 01:02:37;;;;;;;88.32;53.63;;;17.90;79.40;;;;;;4967465;28;96771;-75
2023/05/10 01:05:03;;;;;;;88.85;53.22;;;17.90;79.30;;;;;;4974595;28;95909;-78
2023/05/10 01:07:29;;;;;;;88.47;53.65;;;17.90;79.30;;;;;;4982043;28;94450;-78
2023/05/10 01:09:56;;;;;;;87.90;53.60;;;17.80;79.30;;;;;;4974583;28;95274;-75
2023/05/10 01:12:21;;;;;;;87.57;53.33;;;17.90;79.20;;;;;;4977346;28;94935;-75
2023/05/10 01:14:47;;;;;;;88.38;53.28;;;17.80;79.20;;;;;;4979733;28;93986;-78
2023/05/10 01:17:14;;;;;;;88.95;53.67;;;17.80;79.30;;;;;;4977029;28;96616;-78
2023/05/10 01:19:40;;;;;;;88.43;53.60;;;17.80;79.30;;;;;;4982151;28;94955;-76
2023/05/10 01:22:57;;;;;;;87.53;53.33;;;17.80;79.30;;;;;;4979726;28;95034;-75
2023/05/10 01:25:38;;;;;;;87.13;53.15;;;17.80;79.20;;;;;;4978951;28;95322;-77
2023/05/10 01:28:34;;;;;;;87.70;53.63;;;17.80;79.10;;;;;;4979873;28;94160;-77
2023/05/10 01:31:19;;;;;;;88.20;53.20;;;17.80;79.20;;;;;;4994711;28;94372;-75
2023/05/10 01:33:58;;;;;;;87.88;53.15;;;17.80;79.20;;;;;;4971641;28;94596;-77
2023/05/10 01:36:45;;;;;;;87.85;53.33;;;17.80;79.20;;;;;;4984562;28;96200;-78
2023/05/10 01:39:46;;;;;;;87.55;53.20;;;17.80;79.20;;;;;;4978170;28;94469;-77
2023/05/10 01:42:23;;;;;;;87.57;53.50;;;17.80;79.10;;;;;;4976951;28;93759;-77
2023/05/10 01:45:11;;;;;;;88.13;52.90;;;17.80;79.10;;;;;;4975131;28;95908;-73
2023/05/10 01:47:41;;;;;;;87.95;53.38;;;17.70;79.00;;;;;;4974312;28;94460;-78
2023/05/10 01:50:12;;;;;;;87.35;53.42;;;17.80;79.90;;;;;;4994223;28;95595;-73
2023/05/10 01:52:42;;;;;;;88.35;53.13;;;17.80;79.10;;;;;;4979425;28;94189;-76
2023/05/10 01:55:14;;;;;;;88.13;53.65;;;17.80;79.10;;;;;;4975306;28;94673;-75
2023/05/10 01:57:42;;;;;;;88.20;53.75;;;17.70;79.00;;;;;;4977016;28;95920;-78
2023/05/10 02:00:10;;;;;;;88.10;53.72;;;17.70;79.00;;;;;;4973170;28;94345;-74
2023/05/10 02:02:39;;;;;;;87.85;53.13;;;17.70;79.00;;;;;;4970110;28;94775;-74
2023/05/10 02:05:09;;;;;;;87.88;53.53;;;17.80;79.00;;;;;;4973408;28;94387;-72
2023/05/10 02:07:36;;;;;;;88.32;53.30;;;17.70;78.90;;;;;;4978378;28;93790;-76
2023/05/10 02:10:07;;;;;;;88.03;53.03;;;17.70;79.00;;;;;;4989532;28;94579;-76
2023/05/10 02:12:37;;;;;;;88.30;53.57;;;17.70;78.90;;;;;;4976970;28;96135;-74
2023/05/10 02:15:05;;;;;;;86.93;53.05;;;17.70;78.90;;;;;;4977570;28;95476;-75
2023/05/10 02:17:33;;;;;;;88.82;53.45;;;17.70;78.80;;;;;;4975293;28;94834;-77
2023/05/10 02:20:01;;;;;;;89.55;53.70;;;17.70;78.80;;;;;;4976442;28;94269;-73
2023/05/10 02:22:28;;;;;;;87.22;53.20;;;17.70;78.80;;;;;;4980738;28;95809;-77
2023/05/10 02:24:57;;;;;;;87.38;53.13;;;17.70;78.90;;;;;;4975271;28;96368;-76
2023/05/10 02:27:25;;;;;;;89.38;53.45;;;17.70;78.80;;;;;;4979359;28;94275;-78
2023/05/10 02:29:51;;;;;;;87.90;52.78;;;17.70;78.80;;;;;;4973220;28;94342;-73
2023/05/10 02:32:18;;;;;;;87.78;53.30;;;17.70;78.70;;;;;;4977748;28;96557;-77
2023/05/10 02:34:45;;;;;;;87.38;53.40;;;17.70;78.70;;;;;;4977919;28;94370;-77
2023/05/10 02:37:14;;;;;;;88.25;53.42;;;17.70;78.70;;;;;;4973955;28;94235;-74
2023/05/10 02:39:43;;;;;;;87.35;53.25;;;17.60;78.80;;;;;;4972338;28;96238;-74
2023/05/10 02:42:16;;;;;;;88.00;53.13;;;17.60;78.70;;;;;;4977831;28;94820;-75
2023/05/10 02:44:45;;;;;;;88.07;53.08;;;17.60;78.50;;;;;;4977296;28;94544;-75
2023/05/10 02:47:11;;;;;;;88.13;53.17;;;17.60;78.70;;;;;;4976222;28;94494;-76
2023/05/10 02:49:37;;;;;;;88.60;53.35;;;17.60;78.70;;;;;;4979314;28;94790;-77
2023/05/10 02:52:06;;;;;;;89.13;53.55;;;17.60;78.70;;;;;;4966101;28;94649;-78
2023/05/10 02:54:37;;;;;;;88.35;53.08;;;17.60;78.60;;;;;;4975216;28;94723;-77
2023/05/10 02:57:05;;;;;;;87.22;52.88;;;17.60;78.50;;;;;;4974174;28;93959;-76
2023/05/10 02:59:32;;;;;;;88.60;53.22;;;17.60;78.50;;;;;;4981973;28;95425;-76
2023/05/10 03:02:00;;;;;;;87.15;53.00;;;17.60;78.50;;;;;;4974119;28;99736;-73
2023/05/10 03:04:25;;;;;;;86.72;53.00;;;17.60;78.50;;;;;;4977680;28;96554;-76
2023/05/10 03:06:51;;;;;;;88.00;53.08;;;17.60;78.60;;;;;;4971481;28;94844;-74
2023/05/10 03:09:17;;;;;;;88.90;52.88;;;17.60;78.40;;;;;;4978259;28;94903;-77
2023/05/10 03:12:01;;;;;;;88.25;52.83;;;17.60;78.50;;;;;;4980073;28;94706;-76
2023/05/10 03:14:39;;;;;;;88.97;53.13;;;17.60;78.50;;;;;;4978407;28;94988;-74
2023/05/10 03:17:33;;;;;;;86.57;52.72;;;17.60;78.50;;;;;;4980508;28;93725;-76
2023/05/10 03:20:12;;;;;;;87.90;53.08;;;17.60;78.50;;;;;;4974923;28;94643;-74
2023/05/10 03:22:44;;;;;;;86.97;52.92;;;17.50;78.20;;;;;;4977696;28;98530;-77
2023/05/10 03:25:12;;;;;;;87.07;52.63;;;17.60;78.40;;;;;;4977429;28;94417;-76
2023/05/10 03:27:41;;;;;;;89.10;52.78;;;17.50;78.30;;;;;;4975967;28;95610;-75
2023/05/10 03:30:12;;;;;;;87.88;52.95;;;17.60;78.40;;;;;;4975771;28;97204;-75
2023/05/10 03:32:38;;;;;;;87.37;52.97;;;17.50;78.30;;;;;;4981178;28;94490;-77
2023/05/10 03:35:11;;;;;;;87.53;52.78;;;17.50;78.30;;;;;;4980249;28;94759;-77
2023/05/10 03:37:37;;;;;;;87.32;52.80;;;17.50;78.30;;;;;;4975128;28;95023;-77
2023/05/10 03:40:03;;;;;;;86.85;52.75;;;17.50;78.30;;;;;;4975953;28;94351;-77
2023/05/10 03:42:29;;;;;;;87.80;52.85;;;17.50;78.60;;;;;;4974894;28;94364;-76
2023/05/10 03:44:55;;;;;;;86.72;52.80;;;17.50;78.30;;;;;;4977376;28;95684;-73
2023/05/10 03:47:21;;;;;;;87.28;52.85;;;17.50;78.30;;;;;;4975095;28;94678;-73
2023/05/10 03:49:46;;;;;;;87.53;53.00;;;17.50;78.30;;;;;;4971287;28;94577;-74
2023/05/10 03:52:12;;;;;;;88.05;53.25;;;17.50;78.10;;;;;;4974659;28;94574;-75
2023/05/10 03:54:38;;;;;;;87.22;53.08;;;17.50;78.10;;;;;;4976263;28;96906;-73
2023/05/10 03:57:04;;;;;;;88.63;52.90;;;17.50;78.10;;;;;;4973579;28;95240;-73
2023/05/10 03:59:30;;;;;;;89.18;53.00;;;17.50;78.20;;;;;;4976185;28;95618;-76
2023/05/10 04:01:55;;;;;;;87.88;53.35;;;17.50;78.00;;;;;;4977391;28;94430;-74
2023/05/10 04:04:21;;;;;;;87.75;52.72;;;17.50;78.10;;;;;;4953681;28;94693;-74
2023/05/10 04:06:47;;;;;;;87.43;53.10;;;17.40;78.00;;;;;;4959109;28;96081;-75
2023/05/10 04:09:13;;;;;;;87.28;52.97;;;17.40;78.10;;;;;;4970478;28;95217;-73
2023/05/10 04:11:39;;;;;;;86.43;52.28;;;17.40;78.20;;;;;;4970853;28;93696;-74
2023/05/10 04:14:05;;;;;;;88.32;52.80;;;17.40;78.10;;;;;;4986106;28;94897;-74
2023/05/10 04:16:30;;;;;;;88.30;52.72;;;17.40;78.10;;;;;;4966159;28;93895;-75
2023/05/10 04:18:57;;;;;;;88.10;52.45;;;17.40;78.10;;;;;;4972585;28;95761;-74
2023/05/10 04:21:22;;;;;;;88.18;53.03;;;17.40;77.90;;;;;;4977673;28;94306;-76
2023/05/10 04:23:48;;;;;;;88.40;52.88;;;17.40;78.00;;;;;;4975977;28;94471;-78
2023/05/10 04:26:14;;;;;;;89.45;53.40;;;17.40;78.10;;;;;;4977291;28;94623;-77
2023/05/10 04:28:39;;;;;;;89.00;52.67;;;17.40;78.10;;;;;;4980717;28;94459;-77
2023/05/10 04:31:06;;;;;;;88.68;53.08;;;17.40;78.10;;;;;;4982113;28;94991;-76
2023/05/10 04:33:32;;;;;;;87.00;52.22;;;17.40;78.20;;;;;;4979360;28;94858;-77
2023/05/10 04:35:58;;;;;;;88.18;52.88;;;17.40;78.20;;;;;;4980063;28;94171;-77
2023/05/10 04:38:23;;;;;;;87.07;52.80;;;17.40;78.30;;;;;;4982094;28;95967;-78
2023/05/10 04:40:49;;;;;;;88.80;52.85;;;17.40;78.30;;;;;;4977666;28;95453;-77
2023/05/10 04:43:14;;;;;;;87.85;52.65;;;17.40;78.30;;;;;;4979845;28;95338;-78
2023/05/10 04:45:40;;;;;;;88.50;52.88;;;17.40;78.30;;;;;;4980623;28;97136;-78
2023/05/10 04:48:06;;;;;;;87.20;52.78;;;17.30;78.40;;;;;;4981442;28;94093;-73
2023/05/10 04:50:31;;;;;;;86.43;52.45;;;17.40;78.50;;;;;;4976100;28;94309;-73
2023/05/10 04:52:57;;;;;;;87.38;52.80;;;17.40;78.40;;;;;;4983419;28;95775;-76
2023/05/10 04:55:23;;;;;;;86.53;52.42;;;17.40;78.70;;;;;;4980948;28;97605;-77
2023/05/10 04:57:48;;;;;;;88.25;52.67;;;17.40;78.60;;;;;;4985275;28;94654;-77
2023/05/10 05:00:14;;;;;;;86.68;52.50;;;17.30;78.60;;;;;;4983566;28;93903;-77
2023/05/10 05:02:45;;;;;;;87.47;52.70;;;17.30;78.70;;;;;;4980179;28;94921;-77
2023/05/10 05:05:13;;;;;;;89.28;52.63;;;17.30;78.60;;;;;;4976987;28;94696;-78
2023/05/10 05:07:39;;;;;;;88.47;53.10;;;17.40;78.70;;;;;;4980554;28;95746;-76
2023/05/10 05:10:06;;;;;;;89.38;52.65;;;17.30;78.80;;;;;;4981742;28;94667;-74
2023/05/10 05:12:32;;;;;;;87.18;52.75;;;17.30;78.80;;;;;;4980578;28;97054;-76
2023/05/10 05:14:58;;;;;;;87.57;52.75;;;17.30;78.90;;;;;;4987853;28;94389;-78
2023/05/10 05:17:23;;;;;;;87.47;52.80;;;17.30;78.80;;;;;;4984377;28;95247;-78
2023/05/10 05:19:49;;;;;;;86.18;52.67;;;17.30;78.90;;;;;;5001346;28;94420;-76
2023/05/10 05:22:14;;;;;;;89.93;52.72;;;17.30;79.00;;;;;;4987772;28;95127;-77
2023/05/10 05:24:40;;;;;;;88.55;53.25;;;17.30;79.00;;;;;;4982906;28;95001;-76
2023/05/10 05:27:06;;;;;;;87.47;52.65;;;17.30;78.90;;;;;;4985067;28;94249;-75
2023/05/10 05:29:32;;;;;;;86.88;52.55;;;17.30;79.00;;;;;;4985387;28;94022;-79
2023/05/10 05:31:57;;;;;;;88.80;52.65;;;17.30;79.10;;;;;;4982064;28;96836;-78
2023/05/10 05:34:24;;;;;;;87.70;52.67;;;17.30;79.00;;;;;;4981241;28;94913;-74
2023/05/10 05:36:50;;;;;;;87.65;52.92;;;17.30;79.10;;;;;;4980707;28;95032;-75
2023/05/10 05:39:16;;;;;;;88.13;52.58;;;17.30;79.10;;;;;;4980509;28;94114;-78
2023/05/10 05:41:42;;;;;;;86.05;52.42;;;17.30;79.10;;;;;;4981422;28;94239;-79
2023/05/10 05:44:08;;;;;;;88.88;52.53;;;17.30;79.10;;;;;;4984452;28;94519;-76
2023/05/10 05:46:34;;;;;;;87.22;52.70;;;17.30;79.10;;;;;;4983909;28;94918;-76
2023/05/10 05:48:59;;;;;;;87.28;52.58;;;17.30;79.20;;;;;;4979563;28;94410;-78
2023/05/10 05:51:25;;;;;;;90.50;52.53;;;17.30;79.20;;;;;;4976187;28;94027;-78
2023/05/10 05:53:50;;;;;;;89.05;52.67;;;17.30;79.20;;;;;;4982270;28;96580;-76
2023/05/10 05:56:23;;;;;;;88.65;52.47;;;17.30;79.20;;;;;;4979792;28;95045;-76
2023/05/10 05:58:49;;;;;;;87.95;52.78;;;17.20;79.10;;;;;;4983850;28;94500;-76
2023/05/10 06:01:15;;;;;;;87.10;52.65;;;17.20;79.20;;;;;;4985611;28;94283;-76
2023/05/10 06:03:41;;;;;;;87.47;52.40;;;17.30;79.30;;;;;;4984916;28;96708;-79
2023/05/10 06:06:06;;;;;;;86.97;52.75;;;17.20;79.20;;;;;;4984516;28;96210;-78
2023/05/10 06:08:33;;;;;;;86.68;52.85;;;17.30;79.20;;;;;;5000199;22;94554;-50
2023/05/10 06:10:59;;;;;;;86.68;52.80;;;17.20;79.20;;;;;;4972632;28;95964;-49
2023/05/10 06:13:28;;;;;;;87.18;52.83;;;17.20;79.30;;;;;;4976731;28;95101;-50
2023/05/10 06:15:54;;;;;;;87.82;52.75;;;17.30;79.30;;;;;;4967888;28;95977;-44
2023/05/10 06:18:19;;;;;;;88.40;52.75;;;17.20;79.20;;;;;;4975353;28;95028;-42
2023/05/10 06:20:45;;;;;;;87.40;53.08;;;17.20;79.30;;;;;;4970920;28;96153;-43
2023/05/10 06:23:11;;;;;;;88.13;52.90;;;17.20;79.20;;;;;;4971712;28;95843;-43
2023/05/10 06:25:36;;;;;;;87.43;52.67;;;17.20;79.30;;;;;;4973388;28;95055;-42
2023/05/10 06:28:02;;;;;;;92.00;52.95;;;17.20;79.30;;;;;;4978649;28;95349;-42
2023/05/10 06:30:28;;;;;;;90.05;52.92;;;17.30;79.40;;;;;;4977577;28;95329;-43
2023/05/10 06:32:54;;;;;;;88.07;52.60;;;17.20;79.40;;;;;;4973154;28;94944;-43
2023/05/10 06:35:20;;;;;;;87.10;52.45;;;17.20;79.30;;;;;;4969237;28;94863;-44
2023/05/10 06:37:46;;;;;;;87.72;52.67;;;17.20;79.30;;;;;;4970380;28;94468;-43
2023/05/10 06:40:12;;;;;;;86.97;52.67;;;17.20;79.40;;;;;;4970631;28;95298;-45
2023/05/10 06:42:37;;;;;;;88.78;52.83;;;17.20;79.40;;;;;;4976014;28;95257;-45
2023/05/10 06:45:03;;;;;;;85.93;52.40;;;17.20;79.40;;;;;;4973921;28;95690;-43
2023/05/10 06:47:29;;;;;;;88.28;52.65;;;17.20;79.60;;;;;;4977284;28;95544;-43
2023/05/10 06:49:55;;;;;;;86.90;52.72;;;17.20;79.60;;;;;;4978195;28;95101;-43
2023/05/10 06:52:21;;;;;;;86.95;52.92;;;17.20;79.60;;;;;;4977354;28;94617;-44
2023/05/10 06:54:47;;;;;;;88.90;52.70;;;17.30;79.70;;;;;;4975989;28;94672;-45
2023/05/10 06:57:12;;;;;;;87.15;52.70;;;17.20;79.70;;;;;;4970415;28;94763;-43
2023/05/10 06:59:38;;;;;;;87.30;52.63;;;17.20;79.80;;;;;;4970730;28;95166;-43
2023/05/10 07:02:04;;;;;;;87.28;52.63;;;17.20;79.80;;;;;;4978945;28;94046;-44
2023/05/10 07:04:29;;;;;;;87.78;52.65;;;17.20;79.80;;;;;;4972227;28;94662;-43
2023/05/10 07:06:55;;;;;;;87.72;52.58;;;17.20;79.80;;;;;;4973617;28;96664;-43
2023/05/10 07:09:21;;;;;;;86.88;52.47;;;17.20;79.80;;;;;;4970950;28;95505;-43
2023/05/10 07:11:46;;;;;;;87.70;52.90;;;17.30;79.80;;;;;;4973976;28;96097;-46
2023/05/10 07:14:12;;;;;;;87.40;52.72;;;17.30;79.80;;;;;;4982166;28;95284;-44
2023/05/10 07:16:37;;;;;;;89.35;52.67;;;17.20;79.80;;;;;;4974057;28;95195;-45
2023/05/10 07:19:05;;;;;;;86.68;52.53;;;17.20;79.70;;;;;;4973656;28;95988;-44
2023/05/10 07:21:31;;;;;;;86.90;52.78;;;17.20;79.70;;;;;;4979860;28;94728;-44
2023/05/10 07:23:56;;;;;;;86.70;52.72;;;17.20;79.80;;;;;;4973800;28;94609;-43
2023/05/10 07:26:22;;;;;;;87.55;52.70;;;17.20;79.70;;;;;;4972601;28;93929;-49
2023/05/10 07:28:48;;;;;;;87.15;52.70;;;17.30;79.80;;;;;;4977816;28;95266;-46
2023/05/10 07:31:13;;;;;;;87.65;52.70;;;17.20;79.80;;;;;;4975237;28;94803;-49
2023/05/10 07:33:39;;;;;;;86.78;52.63;;;17.20;79.80;;;;;;4973305;28;95778;-47
2023/05/10 07:36:05;;;;;;;86.85;52.92;;;17.20;79.80;;;;;;4969622;28;95577;-47
2023/05/10 07:38:31;;;;;;;86.68;52.63;;;17.20;79.80;;;;;;4975283;28;97054;-47
2023/05/10 07:40:56;;;;;;;86.72;52.47;;;17.20;79.70;;;;;;4970879;28;94784;-44
2023/05/10 07:43:22;;;;;;;87.00;52.50;;;17.20;79.70;;;;;;4972923;28;94701;-46
2023/05/10 07:45:48;;;;;;;87.25;52.83;;;17.20;79.70;;;;;;4977761;28;94804;-46
2023/05/10 07:48:13;;;;;;;86.10;52.20;;;17.20;79.70;;;;;;4970049;28;94910;-48
2023/05/10 07:50:39;;;;;;;86.82;52.65;;;17.20;79.70;;;;;;4974846;28;95057;-46
2023/05/10 07:53:04;;;;;;;87.15;52.63;;;17.20;79.70;;;;;;4971595;28;95513;-45
2023/05/10 07:55:30;;;;;;;87.50;52.50;;;17.30;79.80;;;;;;4973872;28;95414;-50
2023/05/10 07:57:56;;;;;;;86.70;52.63;;;17.20;79.60;;;;;;4969552;28;96727;-45
2023/05/10 08:00:21;;;;;;;86.28;52.55;;;17.20;79.70;;;;;;4979065;28;94966;-47
2023/05/10 08:02:47;;;;;;;86.47;52.35;;;17.20;79.70;;;;;;4974951;28;95246;-47
2023/05/10 08:05:14;;;;;;;86.90;52.40;;;17.20;79.70;;;;;;4978988;28;95677;-48
2023/05/10 08:07:39;;;;;;;88.97;52.58;;;17.20;80.50;;;;;;4978140;28;95229;-45
2023/05/10 08:10:06;;;;;;;88.13;52.67;;;17.20;79.80;;;;;;4978338;28;95901;-47
2023/05/10 08:12:32;;;;;;;86.45;52.55;;;17.20;79.80;;;;;;4980221;28;94472;-46
2023/05/10 08:14:57;;;;;;;86.43;52.63;;;17.20;80.10;;;;;;4977461;28;94035;-52
2023/05/10 08:17:23;;;;;;;87.65;52.38;;;17.20;79.80;;;;;;4980199;28;94740;-48
2023/05/10 08:19:48;;;;;;;87.55;52.75;;;17.20;79.80;;;;;;4978528;28;95103;-49
2023/05/10 08:22:14;;;;;;;86.78;52.45;;;17.20;79.70;;;;;;4982690;28;96260;-50
2023/05/10 08:24:41;;;;;;;90.35;52.85;;;17.20;79.80;;;;;;4974617;28;95321;-47
2023/05/10 08:27:08;;;;;;;88.68;52.45;;;17.20;79.80;;;;;;4983471;28;95787;-49
2023/05/10 08:29:34;;;;;;;88.15;52.60;;;17.20;79.80;;;;;;4976350;28;95382;-46
2023/05/10 08:32:00;;;;;;;86.05;52.40;;;17.30;80.00;;;;;;4981791;28;94822;-48
2023/05/10 08:34:26;;;;;;;86.13;52.17;;;17.20;80.00;;;;;;4976679;28;94832;-44
2023/05/10 08:36:52;;;;;;;86.65;52.60;;;17.20;80.00;;;;;;4974766;28;95146;-46
2023/05/10 08:39:18;;;;;;;87.18;52.58;;;17.20;80.00;;;;;;4977459;28;95205;-47
2023/05/10 08:41:46;;;;;;;86.20;52.47;;;17.20;80.00;;;;;;4974532;28;94976;-45
2023/05/10 08:44:12;;;;;;;88.22;52.70;;;17.20;80.00;;;;;;4981003;28;94918;-46
2023/05/10 08:46:43;;;;;;;86.95;52.65;;;17.30;79.90;;;;;;4977928;28;97035;-48
2023/05/10 08:49:12;;;;;;;;;;;17.30;79.90;;;;;;4976432;28;96084;-48
2023/05/10 08:51:43;;;;;;;86.95;52.65;;;17.20;79.80;;;;;;4973167;28;95256;-49
2023/05/10 08:54:09;;;;;;;88.95;52.60;;;17.30;80.00;;;;;;4977129;28;95031;-47
2023/05/10 08:56:34;;;;;;;87.47;52.53;;;17.30;79.90;;;;;;4978773;28;95096;-47
2023/05/10 08:59:00;;;;;;;87.28;52.65;;;17.30;79.90;;;;;;4980954;28;94885;-46
2023/05/10 09:01:27;;;;;;;87.22;52.67;;;17.30;79.90;;;;;;4973910;28;95266;-46
2023/05/10 09:03:53;;;;;;;86.18;52.47;;;17.20;79.80;;;;;;4973493;28;93998;-45
2023/05/10 09:06:19;;;;;;;88.35;52.90;;;17.30;79.90;;;;;;4973268;28;95332;-46
2023/05/10 09:08:45;;;;;;;87.78;52.38;;;17.30;79.90;;;;;;4979180;28;94932;-44
2023/05/10 09:11:12;;;;;;;88.22;52.72;;;17.30;79.90;;;;;;4976473;28;95682;-47
2023/05/10 09:13:38;;;;;;;88.20;52.65;;;17.30;80.60;;;;;;4975620;28;95922;-46
2023/05/10 09:16:04;;;;;;;87.40;52.72;;;17.30;79.90;;;;;;4973849;28;95296;-45
2023/05/10 09:18:30;;;;;;;87.97;52.47;;;17.30;80.00;;;;;;4973055;28;95089;-48
2023/05/10 09:20:56;;;;;;;87.72;52.85;;;17.30;79.90;;;;;;4975198;28;94604;-46
2023/05/10 09:23:22;;;;;;;88.70;53.03;;;17.30;79.90;;;;;;4981444;28;94679;-50
2023/05/10 09:25:47;;;;;;;88.22;53.00;;;17.30;79.80;;;;;;4969956;28;96250;-49
2023/05/10 09:28:13;;;;;;;87.72;53.05;;;17.30;79.90;;;;;;4977092;28;94669;-47
2023/05/10 09:30:39;;;;;;;87.65;52.78;;;17.30;79.90;;;;;;4974464;28;95332;-49
2023/05/10 09:33:05;;;;;;;87.93;52.90;;;17.40;80.00;;;;;;4976974;28;95174;-47
2023/05/10 09:35:33;;;;;;;87.97;52.88;;;17.30;79.90;;;;;;4975709;28;96490;-48
2023/05/10 09:38:04;;;;;;;87.30;52.95;;;17.40;79.90;;;;;;4978575;28;96019;-51
2023/05/10 09:40:30;;;;;;;87.43;53.08;;;17.40;80.60;;;;;;4971368;28;95912;-49
2023/05/10 09:43:01;;;;;;;88.15;53.17;;;17.40;79.80;;;;;;4972799;28;95525;-48
2023/05/10 09:45:29;;;;;;;89.22;53.10;;;17.40;79.80;;;;;;4973235;28;94620;-49
2023/05/10 09:47:55;;;;;;;88.13;52.88;;;17.40;79.70;;;;;;4974766;28;96537;-46
2023/05/10 09:50:21;;;;;;;89.07;53.10;;;17.40;79.60;;;;;;4975687;28;95517;-49
2023/05/10 09:53:14;;;;;;;86.95;52.97;;;17.40;79.50;;;;;;4976037;28;94317;-50
2023/05/10 09:55:41;;;;;;;88.10;52.90;;;17.40;79.50;;;;;;4971776;28;95538;-46
2023/05/10 09:58:10;;;;;;;86.85;52.55;;;17.40;79.60;;;;;;4978768;28;95457;-46
2023/05/10 10:00:40;;;;;;;90.25;52.95;;;17.40;79.60;;;;;;4971160;28;96116;-46
2023/05/10 10:03:11;;;;;;;87.93;53.10;;;17.40;79.60;;;;;;4972767;28;95017;-47
2023/05/10 10:05:41;;;;;;;89.25;53.25;;;17.50;79.70;;;;;;4974842;28;95081;-48
2023/05/10 10:08:07;;;;;;;87.32;52.95;;;17.50;79.70;;;;;;4972950;28;96743;-46
2023/05/10 10:10:33;;;;;;;87.80;52.95;;;17.50;79.60;;;;;;4972706;28;95362;-48
2023/05/10 10:12:59;;;;;;;87.45;52.97;;;17.50;79.70;;;;;;4970802;28;94637;-49
2023/05/10 10:15:26;;;;;;;87.88;53.10;;;17.50;79.60;;;;;;4980420;28;94704;-48
2023/05/10 10:17:53;;;;;;;87.65;53.15;;;17.50;79.60;;;;;;4972825;28;95903;-47
2023/05/10 10:20:20;;;;;;;88.47;53.30;;;17.50;79.50;;;;;;4977290;28;95140;-47
2023/05/10 10:22:47;;;;;;;88.28;52.95;;;17.50;79.70;;;;;;4978353;28;95324;-46
2023/05/10 10:25:15;;;;;;;89.38;52.95;;;17.50;79.60;;;;;;4974058;28;96095;-50
2023/05/10 10:27:47;;;;;;;87.75;52.97;;;17.50;79.90;;;;;;4974434;28;97527;-47
2023/05/10 10:30:20;;;;;;;87.43;53.15;;;17.50;81.40;;;;;;4974111;28;96585;-46
2023/05/10 10:33:09;;;;;;;88.30;53.78;;;17.50;81.50;;;;;;4978805;28;95456;-47
2023/05/10 10:35:35;;;;;;;88.18;53.65;;;17.50;83.10;;;;;;4949594;28;95344;-47
2023/05/10 10:38:01;;;;;;;89.80;53.92;;;17.60;85.00;;;;;;4978958;28;95048;-49
2023/05/10 10:40:30;;;;;;;89.15;53.72;;;17.50;85.00;;;;;;4974218;28;94645;-51
2023/05/10 10:42:56;;;;;;;88.95;53.75;;;17.50;83.90;;;;;;4973265;28;94626;-49
2023/05/10 10:45:26;;;;;;;89.45;53.85;;;17.60;84.00;;;;;;4975345;28;94777;-51
2023/05/10 10:48:22;;;;;;;88.72;53.50;;;17.60;83.70;;;;;;4979098;28;94918;-48
2023/05/10 10:50:56;;;;;;;91.97;53.50;;;17.60;83.50;;;;;;4973254;28;95672;-47
2023/05/10 10:53:21;;;;;;;89.22;53.55;;;17.60;83.70;;;;;;4976480;28;95570;-49
2023/05/10 10:55:48;;;;;;;88.75;53.30;;;17.60;83.60;;;;;;4968969;28;95501;-43
2023/05/10 10:58:32;;;;;;;88.30;53.40;;;17.60;83.50;;;;;;4973631;28;95893;-43
2023/05/10 11:01:17;;;;;;;88.68;53.45;;;17.60;83.50;;;;;;4972569;28;95372;-44
2023/05/10 11:04:04;;;;;;;89.47;53.80;;;17.60;83.40;;;;;;4967041;28;95899;-45
2023/05/10 11:06:34;;;;;;;88.65;53.40;;;17.60;83.40;;;;;;4974434;28;95714;-43
2023/05/10 11:09:07;;;;;;;88.82;53.40;;;17.60;83.20;;;;;;4976893;28;94494;-43
2023/05/10 11:11:34;;;;;;;87.80;53.00;;;17.60;83.10;;;;;;4977619;28;97586;-42
2023/05/10 11:14:07;;;;;;;88.80;53.35;;;17.60;83.10;;;;;;4971983;28;95163;-44
2023/05/10 11:16:43;;;;;;;87.57;53.38;;;17.60;83.00;;;;;;4972025;28;96372;-42
2023/05/10 11:19:13;;;;;;;88.53;53.20;;;17.60;83.00;;;;;;4975160;28;96092;-42
2023/05/10 11:22:11;;;;;;;88.70;53.13;;;17.60;82.90;;;;;;4976988;28;94877;-43
2023/05/10 11:24:36;;;;;;;89.13;53.38;;;17.60;82.70;;;;;;4969413;28;95210;-43
2023/05/10 11:27:02;;;;;;;88.65;53.10;;;17.60;82.60;;;;;;4978609;28;95064;-43
2023/05/10 11:29:28;;;;;;;88.93;53.33;;;17.60;82.60;;;;;;4972924;28;95107;-45
2023/05/10 11:31:57;;;;;;;88.45;53.35;;;17.60;82.50;;;;;;4976553;28;95033;-43
2023/05/10 11:34:33;;;;;;;88.70;53.25;;;17.60;82.40;;;;;;4974399;28;93839;-42
2023/05/10 11:37:00;;;;;;;88.05;53.30;;;17.60;82.50;;;;;;4976619;28;95294;-43
2023/05/10 11:39:31;;;;;;;89.88;53.28;;;17.70;82.40;;;;;;4974930;28;95034;-42
2023/05/10 11:41:58;;;;;;;88.15;53.33;;;17.60;82.30;;;;;;4979151;28;96441;-43
2023/05/10 11:44:28;;;;;;;88.57;53.35;;;17.70;82.40;;;;;;4976385;28;94809;-43
2023/05/10 11:46:54;;;;;;;89.03;53.25;;;17.70;82.40;;;;;;4975264;28;95546;-48
2023/05/10 11:49:23;;;;;;;88.65;53.42;;;17.70;82.30;;;;;;4981366;28;96960;-49
2023/05/10 11:51:48;;;;;;;88.30;53.33;;;17.70;82.40;;;;;;4975349;28;95138;-50
2023/05/10 11:54:14;;;;;;;88.60;53.65;;;17.70;82.30;;;;;;4983010;28;95180;-46
2023/05/10 11:56:40;;;;;;;88.75;53.58;;;17.70;82.30;;;;;;4977472;28;94647;-46
2023/05/10 11:59:08;;;;;;;89.32;53.22;;;17.70;82.20;;;;;;4975364;28;95533;-48
2023/05/10 12:01:34;;;;;;;89.03;53.17;;;17.70;82.20;;;;;;4961058;28;95661;-47
2023/05/10 12:04:01;;;;;;;88.95;53.55;;;17.70;82.40;;;;;;4971568;28;95445;-48
2023/05/10 12:06:28;;;;;;;89.13;53.33;;;17.80;82.20;;;;;;4966895;28;97285;-46
2023/05/10 12:08:54;;;;;;;88.35;53.20;;;17.80;82.20;;;;;;4969023;28;95235;-44
2023/05/10 12:11:25;;;;;;;89.80;53.63;;;17.80;82.10;;;;;;4969387;28;95214;-45
2023/05/10 12:13:51;;;;;;;88.33;53.30;;;17.80;82.80;;;;;;4966975;28;95701;-48
2023/05/10 12:16:19;;;;;;;88.53;53.20;;;17.90;82.90;;;;;;4969247;28;95149;-46
2023/05/10 12:18:47;;;;;;;88.57;53.47;;;17.80;83.10;;;;;;4967146;28;97085;-43
2023/05/10 12:21:15;;;;;;;88.30;53.13;;;17.90;82.50;;;;;;4969721;28;95541;-47
2023/05/10 12:23:41;;;;;;;89.90;53.78;;;17.90;82.20;;;;;;4971725;28;94002;-44
2023/05/10 12:26:10;;;;;;;90.18;53.83;;;17.90;83.70;;;;;;4969817;28;100174;-45
2023/05/10 12:28:35;;;;;;;88.75;53.40;;;17.90;82.30;;;;;;4966614;28;99425;-46
2023/05/10 12:31:02;;;;;;;89.20;53.40;;;17.90;82.10;;;;;;4963444;28;96559;-44
2023/05/10 12:33:45;;;;;;;88.22;53.25;;;17.90;82.30;;;;;;4972601;28;95383;-49